Time;durP1;ratioP1;P1;durP2;ratioP2;P2;SDS_P1;SDS_P2;PMS_P1;PMS_P2;Temp;Humidity;BMP_temperature;BMP_pressure;BME280_temperature;BME280_humidity;BME280_pressure;Samples;Min_cycle;Max_cycle;Signal;HPM_P1;HPM_P2
2022/12/13 00:01:50;;;;;;;5.45;2.75;;;;;;;-1.25;71.00;100091.11;1637229;85;23065;-81
2022/12/13 00:04:18;;;;;;;4.60;2.37;;;;;;;-1.26;70.50;100095.80;1651679;85;21162;-89
2022/12/13 00:06:45;;;;;;;4.08;2.60;;;;;;;-1.27;70.39;100100.45;1618832;85;21089;-81
2022/12/13 00:09:16;;;;;;;4.87;2.98;;;;;;;-1.29;70.31;100098.19;1660792;84;21095;-89
2022/12/13 00:11:44;;;;;;;6.03;3.22;;;;;;;-1.29;70.27;100099.47;1645231;85;21904;-88
2022/12/13 00:14:12;;;;;;;5.47;2.90;;;;;;;-1.28;70.28;100109.39;1642647;86;21812;-81
2022/12/13 00:16:39;;;;;;;3.60;2.05;;;;;;;-1.29;70.14;100096.01;1649828;85;21074;-82
2022/12/13 00:19:06;;;;;;;4.05;2.40;;;;;;;-1.28;70.10;100101.65;1639669;85;21667;-88
2022/12/13 00:21:33;;;;;;;5.30;2.65;;;;;;;-1.27;70.15;100095.30;1649434;85;21126;-81
2022/12/13 00:24:00;;;;;;;3.60;2.60;;;;;;;-1.23;70.06;100100.25;1635845;85;21610;-81
2022/12/13 00:26:29;;;;;;;3.87;2.92;;;;;;;-1.22;70.17;100111.05;1649171;85;21694;-81
2022/12/13 00:29:00;;;;;;;3.30;2.50;;;;;;;-1.21;70.08;100107.28;1619554;86;21126;-81
2022/12/13 00:31:30;;;;;;;4.75;2.10;;;;;;;-1.20;70.05;100118.52;1616881;86;21074;-88
2022/12/13 00:33:56;;;;;;;3.80;2.70;;;;;;;-1.22;69.99;100105.52;1641370;86;21055;-89
2022/12/13 00:36:23;;;;;;;4.70;2.37;;;;;;;-1.22;70.00;100108.47;1639549;86;21560;-89
2022/12/13 00:38:59;;;;;;;2.87;2.25;;;;;;;-1.24;69.97;100110.98;1642642;86;21784;-81
2022/12/13 00:41:19;;;;;;;5.53;3.77;;;;;;;-1.26;69.89;100113.88;1593388;88;21069;-81
2022/12/13 00:43:46;;;;;;;7.12;4.20;;;;;;;-1.25;69.96;100111.77;1643156;85;21064;-80
2022/12/13 00:46:15;;;;;;;4.75;2.80;;;;;;;-1.26;70.04;100110.38;1642746;85;21065;-81
2022/12/13 00:48:42;;;;;;;4.08;2.60;;;;;;;-1.26;69.95;100111.67;1647758;85;21078;-88
2022/12/13 00:51:10;;;;;;;5.20;2.62;;;;;;;-1.27;69.98;100126.28;1643912;86;21734;-88
2022/12/13 00:53:36;;;;;;;4.12;2.87;;;;;;;-1.27;70.00;100118.53;1638561;85;21091;-87
2022/12/13 00:56:04;;;;;;;2.70;2.15;;;;;;;-1.28;69.95;100116.73;1648621;85;21583;-88
2022/12/13 00:58:31;;;;;;;5.17;2.72;;;;;;;-1.30;70.01;100117.04;1638329;85;21075;-80
2022/12/13 01:01:05;;;;;;;3.80;2.45;;;;;;;-1.30;70.02;100122.20;1645789;85;21105;-81
2022/12/13 01:03:32;;;;;;;6.95;2.62;;;;;;;-1.32;69.96;100113.88;1641444;85;21818;-88
2022/12/13 01:05:59;;;;;;;3.30;2.15;;;;;;;-1.33;69.96;100109.50;1656185;85;21627;-81
2022/12/13 01:08:26;;;;;;;3.20;2.58;;;;;;;-1.35;69.94;100117.55;1640581;85;21078;-81
2022/12/13 01:10:53;;;;;;;2.83;2.20;;;;;;;-1.37;70.01;100115.78;1664916;84;21667;-81
2022/12/13 01:13:21;;;;;;;3.77;2.15;;;;;;;-1.38;70.06;100113.10;1666117;85;21663;-81
2022/12/13 01:15:48;;;;;;;4.37;2.02;;;;;;;-1.40;70.04;100106.55;1660647;84;21961;-80
2022/12/13 01:18:17;;;;;;;3.90;2.35;;;;;;;-1.40;70.06;100113.00;1660878;84;21067;-80
2022/12/13 01:21:00;;;;;;;3.80;2.37;;;;;;;-1.42;70.06;100113.30;1608768;87;21527;-88
2022/12/13 01:23:27;;;;;;;7.13;2.27;;;;;;;-1.44;70.10;100114.91;1669629;85;21060;-88
2022/12/13 01:25:54;;;;;;;4.60;2.17;;;;;;;-1.44;70.14;100108.45;1667159;85;21048;-88
2022/12/13 01:28:21;;;;;;;2.87;2.20;;;;;;;-1.45;70.13;100109.23;1675348;84;21760;-88
2022/12/13 01:31:02;;;;;;;6.35;2.12;;;;;;;-1.46;70.07;100115.20;1609970;88;21577;-80
2022/12/13 01:33:29;;;;;;;2.90;2.22;;;;;;;-1.48;70.16;100103.90;1654660;85;21088;-89
2022/12/13 01:35:58;;;;;;;4.20;2.35;;;;;;;-1.48;70.12;100104.27;1668263;84;21056;-81
2022/12/13 01:38:25;;;;;;;3.62;2.47;;;;;;;-1.50;70.12;100114.53;1667819;84;22103;-81
2022/12/13 01:40:56;;;;;;;3.95;1.87;;;;;;;-1.51;70.08;100112.73;1605208;88;21751;-81
2022/12/13 01:43:21;;;;;;;4.10;2.22;;;;;;;-1.50;70.04;100119.69;1597513;88;21111;-81
2022/12/13 01:45:48;;;;;;;3.33;2.10;;;;;;;-1.46;69.98;100124.66;1661223;84;21056;-81
2022/12/13 01:48:19;;;;;;;3.45;2.10;;;;;;;-1.45;69.99;100116.09;1661815;84;21123;-80
2022/12/13 01:50:49;;;;;;;2.62;1.90;;;;;;;-1.45;69.99;100122.55;1633166;85;21088;-88
2022/12/13 01:53:20;;;;;;;3.15;1.82;;;;;;;-1.45;69.93;100123.84;1672986;84;21760;-88
2022/12/13 01:55:49;;;;;;;2.30;2.10;;;;;;;-1.44;69.96;100132.97;1658688;85;21088;-80
2022/12/13 01:58:17;;;;;;;4.87;2.12;;;;;;;-1.41;69.98;100133.17;1668434;84;21080;-80
2022/12/13 02:00:43;;;;;;;3.87;2.30;;;;;;;-1.37;70.02;100127.77;1607937;88;21084;-80
2022/12/13 02:03:10;;;;;;;2.75;2.10;;;;;;;-1.30;70.00;100140.27;1659040;85;21854;-80
2022/12/13 02:05:43;;;;;;;5.83;2.87;;;;;;;-1.25;69.97;100136.30;1663187;84;22185;-88
2022/12/13 02:08:11;;;;;;;3.17;2.12;;;;;;;-1.21;69.85;100145.13;1625440;85;21103;-88
2022/12/13 02:10:37;;;;;;;2.87;1.90;;;;;;;-1.22;69.82;100135.59;1636580;86;21082;-88
2022/12/13 02:13:04;;;;;;;2.90;2.30;;;;;;;-1.19;69.77;100140.55;1647698;85;21070;-88
2022/12/13 02:15:45;;;;;;;3.70;2.45;;;;;;;-1.18;69.67;100140.17;1650011;86;21071;-88
2022/12/13 02:18:30;;;;;;;2.67;1.55;;;;;;;-1.14;69.73;100142.14;1623980;85;21787;-89
2022/12/13 02:21:33;;;;;;;2.70;2.00;;;;;;;-1.06;69.79;100142.60;1639219;85;21508;-81
2022/12/13 02:24:34;;;;;;;4.92;2.55;;;;;;;-0.97;69.77;100143.17;1627926;85;21107;-80
2022/12/13 02:27:15;;;;;;;3.67;2.12;;;;;;;-0.88;69.65;100147.98;1648749;85;21408;-87
2022/12/13 02:29:53;;;;;;;2.55;1.98;;;;;;;-0.85;69.57;100130.98;1650074;85;21090;-89
2022/12/13 02:32:49;;;;;;;2.85;1.92;;;;;;;-0.77;69.55;100139.19;1639270;86;21834;-81
2022/12/13 02:35:39;;;;;;;6.45;2.17;;;;;;;-0.73;69.37;100137.30;1631599;85;21659;-81
2022/12/13 02:38:14;;;;;;;2.37;1.98;;;;;;;-0.71;69.32;100136.08;1637237;85;21066;-81
2022/12/13 02:40:59;;;;;;;2.67;2.20;;;;;;;-0.69;69.23;100141.85;1636562;85;21169;-87
2022/12/13 02:43:31;;;;;;;4.75;2.33;;;;;;;-0.66;69.23;100147.22;1648844;85;21134;-88
2022/12/13 02:45:59;;;;;;;2.83;2.00;;;;;;;-0.62;69.25;100145.30;1633464;86;21787;-88
2022/12/13 02:48:30;;;;;;;3.17;2.47;;;;;;;-0.57;69.19;100151.14;1649072;85;21062;-81
2022/12/13 02:50:58;;;;;;;3.15;2.05;;;;;;;-0.54;69.10;100151.34;1623662;85;21144;-81
2022/12/13 02:53:25;;;;;;;2.87;2.30;;;;;;;-0.52;68.87;100156.20;1624546;86;21130;-88
2022/12/13 02:55:51;;;;;;;3.12;2.30;;;;;;;-0.47;68.87;100145.70;1643126;86;21054;-80
2022/12/13 02:58:25;;;;;;;3.60;2.42;;;;;;;-0.43;68.91;100159.33;1629314;86;21796;-89
2022/12/13 03:01:31;;;;;;;3.02;2.20;;;;;;;-0.42;68.88;100155.52;1642035;85;21146;-87
2022/12/13 03:04:30;;;;;;;2.87;2.25;;;;;;;-0.42;68.62;100162.39;1649663;85;21014;-88
2022/12/13 03:07:05;;;;;;;3.92;2.20;;;;;;;-0.44;68.73;100157.53;1649129;85;21433;-80
2022/12/13 03:09:46;;;;;;;3.00;2.10;;;;;;;-0.47;68.40;100154.38;1634251;85;21002;-80
2022/12/13 03:15:55;;;;;;;3.05;2.15;;;;;;;-0.57;68.25;100138.22;1638267;85;21175;-88
2022/12/13 03:18:23;;;;;;;2.67;1.95;;;;;;;-0.60;68.46;100138.94;1645073;86;21092;-88
2022/12/13 03:20:57;;;;;;;2.55;2.25;;;;;;;-0.59;68.38;100136.83;1641056;85;21544;-88
2022/12/13 03:23:25;;;;;;;3.17;2.05;;;;;;;-0.58;68.53;100137.33;1624892;86;21097;-87
2022/12/13 03:25:58;;;;;;;2.90;2.20;;;;;;;-0.56;68.45;100138.31;1640285;85;22028;-80
2022/12/13 03:28:25;;;;;;;3.47;2.35;;;;;;;-0.56;68.47;100127.97;1641685;86;21120;-89
2022/12/13 03:30:52;;;;;;;4.00;2.30;;;;;;;-0.56;68.56;100141.27;1639026;85;22092;-80
2022/12/13 03:33:19;;;;;;;3.15;2.20;;;;;;;-0.55;68.58;100137.91;1651296;85;21050;-80
2022/12/13 03:35:46;;;;;;;3.95;2.80;;;;;;;-0.55;68.73;100136.61;1644947;85;22017;-81
2022/12/13 03:38:13;;;;;;;3.72;2.30;;;;;;;-0.54;68.80;100140.58;1630171;86;21756;-80
2022/12/13 03:40:40;;;;;;;4.28;2.50;;;;;;;-0.53;68.83;100151.40;1649050;85;21117;-81
2022/12/13 03:43:07;;;;;;;3.67;2.67;;;;;;;-0.51;69.00;100139.45;1644649;85;21056;-81
2022/12/13 03:45:34;;;;;;;4.00;2.25;;;;;;;-0.46;69.10;100152.67;1649928;85;21192;-81
2022/12/13 03:48:00;;;;;;;3.10;2.50;;;;;;;-0.44;69.12;100140.72;1654700;85;21296;-88
2022/12/13 03:50:27;;;;;;;3.65;2.90;;;;;;;-0.44;69.17;100144.59;1634698;86;21690;-88
2022/12/13 03:53:01;;;;;;;3.87;2.77;;;;;;;-0.41;69.29;100143.09;1647009;85;21092;-81
2022/12/13 03:55:27;;;;;;;7.05;3.00;;;;;;;-0.42;69.27;100146.46;1644882;85;21059;-81
2022/12/13 03:57:54;;;;;;;5.55;2.80;;;;;;;-0.43;69.31;100143.81;1642409;85;21509;-80
2022/12/13 04:00:21;;;;;;;3.85;2.80;;;;;;;-0.41;69.37;100154.73;1646208;85;21065;-88
2022/12/13 04:02:48;;;;;;;4.25;2.80;;;;;;;-0.44;69.37;100140.72;1645913;85;21792;-81
2022/12/13 04:05:15;;;;;;;4.00;2.60;;;;;;;-0.49;69.35;100143.05;1639730;85;21539;-81
2022/12/13 04:07:42;;;;;;;4.42;2.95;;;;;;;-0.55;69.35;100143.08;1637986;85;21097;-81
2022/12/13 04:10:09;;;;;;;3.65;2.70;;;;;;;-0.59;69.47;100154.92;1635452;85;21314;-88
2022/12/13 04:15:21;;;;;;;3.35;2.83;;;;;;;-0.62;69.48;100146.97;1635474;85;21877;-82
2022/12/13 04:17:48;;;;;;;9.58;6.10;;;;;;;-0.69;69.48;100149.61;1635556;85;21045;-81
2022/12/13 04:20:14;;;;;;;8.85;5.10;;;;;;;-0.76;69.49;100148.73;1649101;85;21584;-88
2022/12/13 04:22:41;;;;;;;13.95;8.20;;;;;;;-0.80;69.64;100160.98;1645101;86;21356;-87
2022/12/13 04:25:08;;;;;;;25.77;13.40;;;;;;;-0.87;69.69;100156.24;1639429;85;21058;-81
2022/12/13 04:27:36;;;;;;;20.92;11.00;;;;;;;-0.94;69.79;100151.49;1622828;86;22431;-89
2022/12/13 04:30:08;;;;;;;12.33;6.83;;;;;;;-1.01;69.85;100157.59;1650362;86;21277;-88
2022/12/13 04:32:36;;;;;;;9.80;6.45;;;;;;;-1.07;69.95;100156.30;1629216;85;21105;-89
2022/12/13 04:35:04;;;;;;;10.70;6.08;;;;;;;-1.14;70.02;100157.63;1606668;87;21107;-88
2022/12/13 04:37:31;;;;;;;5.37;3.37;;;;;;;-1.20;70.08;100158.55;1646949;85;21078;-87
2022/12/13 04:39:58;;;;;;;6.25;3.90;;;;;;;-1.24;70.15;100162.63;1649658;85;21837;-87
2022/12/13 04:42:26;;;;;;;7.28;5.65;;;;;;;-1.26;70.28;100165.52;1643922;85;21635;-80
2022/12/13 04:44:53;;;;;;;6.75;4.67;;;;;;;-1.25;70.37;100164.70;1632747;86;22118;-80
2022/12/13 04:47:19;;;;;;;11.93;8.60;;;;;;;-1.22;70.54;100168.78;1644465;85;21094;-79
2022/12/13 04:49:46;;;;;;;6.72;4.72;;;;;;;-1.14;70.66;100169.25;1642783;85;21058;-80
2022/12/13 04:52:13;;;;;;;8.30;5.12;;;;;;;-1.08;70.68;100172.20;1644024;85;21759;-81
2022/12/13 04:54:41;;;;;;;5.80;3.85;;;;;;;-1.03;70.77;100166.94;1659843;85;21051;-89
2022/12/13 04:57:10;;;;;;;4.20;3.22;;;;;;;-0.94;70.82;100164.00;1645969;85;21047;-82
2022/12/13 04:59:37;;;;;;;4.28;3.45;;;;;;;-0.86;70.79;100160.22;1636990;85;21073;-88
2022/12/13 05:02:04;;;;;;;4.58;2.98;;;;;;;-0.79;70.67;100162.75;1639794;86;21130;-80
2022/12/13 05:04:31;;;;;;;5.33;3.02;;;;;;;-0.75;70.66;100158.30;1632643;85;22059;-82
2022/12/13 05:06:58;;;;;;;4.37;2.65;;;;;;;-0.70;70.55;100163.31;1638738;85;21403;-81
2022/12/13 05:09:24;;;;;;;3.72;3.00;;;;;;;-0.68;70.42;100164.30;1642517;85;21113;-81
2022/12/13 05:11:51;;;;;;;4.95;3.10;;;;;;;-0.68;70.33;100161.71;1631100;86;21664;-89
2022/12/13 05:14:18;;;;;;;4.78;3.05;;;;;;;-0.69;70.30;100161.64;1638645;86;21039;-80
2022/12/13 05:16:44;;;;;;;3.77;3.05;;;;;;;-0.68;70.32;100164.70;1630186;85;22607;-86
2022/12/13 05:19:11;;;;;;;4.62;3.12;;;;;;;-0.64;70.41;100166.67;1635598;86;21126;-85
2022/12/13 05:21:38;;;;;;;4.53;3.22;;;;;;;-0.57;70.47;100174.41;1639286;85;21063;-78
2022/12/13 05:24:06;;;;;;;4.40;2.98;;;;;;;-0.52;70.48;100174.29;1642095;85;21665;-80
2022/12/13 05:26:33;;;;;;;4.67;3.30;;;;;;;-0.48;70.51;100170.67;1631863;85;21757;-80
2022/12/13 05:29:00;;;;;;;4.55;3.55;;;;;;;-0.43;70.43;100172.25;1638576;86;22209;-87
2022/12/13 05:31:27;;;;;;;5.35;3.55;;;;;;;-0.45;70.32;100173.45;1649655;85;21074;-83
2022/12/13 05:33:54;;;;;;;6.80;3.15;;;;;;;-0.45;70.29;100170.86;1649420;85;21069;-86
2022/12/13 05:36:24;;;;;;;4.15;3.22;;;;;;;-0.46;70.27;100170.36;1649747;86;21102;-88
2022/12/13 05:38:49;;;;;;;6.85;4.47;;;;;;;-0.43;70.36;100172.25;1643471;85;21074;-82
2022/12/13 05:41:17;;;;;;;7.80;3.90;;;;;;;-0.43;70.28;100171.84;1633348;85;22951;-89
2022/12/13 05:43:44;;;;;;;8.38;4.50;;;;;;;-0.45;70.26;100169.57;1643696;85;21214;-87
2022/12/13 05:46:17;;;;;;;5.67;3.50;;;;;;;-0.47;70.22;100183.19;1646356;85;21078;-91
2022/12/13 05:48:44;;;;;;;5.75;3.92;;;;;;;-0.50;70.19;100180.44;1645960;85;22106;-84
2022/12/13 05:51:11;;;;;;;7.78;4.33;;;;;;;-0.51;70.34;100184.69;1640770;85;21145;-84
2022/12/13 05:53:40;;;;;;;7.75;4.47;;;;;;;-0.49;70.43;100183.13;1641425;86;21755;-90
2022/12/13 05:56:09;;;;;;;5.45;3.77;;;;;;;-0.47;70.38;100182.81;1631242;86;21327;-89
2022/12/13 05:58:37;;;;;;;6.53;4.28;;;;;;;-0.48;70.35;100183.59;1612951;86;21603;-90
2022/12/13 06:01:12;;;;;;;6.03;3.92;;;;;;;-0.50;70.27;100190.78;1639246;85;21106;-90
2022/12/13 06:03:40;;;;;;;7.85;4.08;;;;;;;-0.55;70.26;100187.02;1635033;86;21517;-90
2022/12/13 06:08:33;;;;;;;9.30;4.40;;;;;;;-0.58;70.30;100195.49;1821411;77;22731;-88
2022/12/13 06:11:00;;;;;;;7.17;4.25;;;;;;;-0.67;70.33;100201.39;1800400;78;21062;-88
2022/12/13 06:13:27;;;;;;;7.95;4.15;;;;;;;-0.71;70.35;100196.81;1791535;79;21979;-87
2022/12/13 06:15:54;;;;;;;6.87;4.33;;;;;;;-0.75;70.36;100198.34;1797177;78;21012;-88
2022/12/13 06:18:21;;;;;;;6.78;4.03;;;;;;;-0.79;70.45;100203.73;1793913;78;21023;-88
2022/12/13 06:20:56;;;;;;;6.70;3.77;;;;;;;-0.80;70.53;100205.80;1790975;78;21375;-88
2022/12/13 06:23:23;;;;;;;6.30;3.50;;;;;;;-0.82;70.50;100211.28;1791180;78;21570;-88
2022/12/13 06:25:50;;;;;;;9.40;4.72;;;;;;;-0.84;70.58;100205.53;1793033;78;22140;-88
2022/12/13 06:28:17;;;;;;;8.33;3.87;;;;;;;-0.87;70.62;100214.38;1796198;78;20934;-88
2022/12/13 06:30:44;;;;;;;6.47;4.28;;;;;;;-0.88;70.70;100221.62;1798988;78;21078;-88
2022/12/13 06:33:10;;;;;;;7.78;4.12;;;;;;;-0.91;70.72;100214.98;1792916;78;21976;-88
2022/12/13 06:35:37;;;;;;;6.87;3.98;;;;;;;-0.92;70.77;100223.15;1797245;78;22025;-88
2022/12/13 06:38:04;;;;;;;7.28;3.98;;;;;;;-0.90;70.85;100224.13;1790939;78;21754;-88
2022/12/13 06:40:31;;;;;;;10.35;4.17;;;;;;;-0.86;70.90;100232.97;1793374;78;21053;-88
2022/12/13 06:42:58;;;;;;;6.72;4.03;;;;;;;-0.82;70.99;100231.06;1791888;79;21061;-88
2022/12/13 06:45:24;;;;;;;5.87;4.33;;;;;;;-0.78;70.94;100235.62;1791545;78;21023;-87
2022/12/13 06:47:51;;;;;;;7.10;4.55;;;;;;;-0.75;70.90;100233.23;1794103;78;21363;-88
2022/12/13 06:50:18;;;;;;;8.13;4.62;;;;;;;-0.73;71.01;100235.89;1790657;78;22406;-87
2022/12/13 06:52:48;;;;;;;7.65;4.90;;;;;;;-0.75;70.77;100238.78;1795246;78;21042;-88
2022/12/13 06:55:14;;;;;;;8.33;4.53;;;;;;;-0.81;70.68;100245.38;1790055;79;21724;-87
2022/12/13 06:57:42;;;;;;;8.23;4.58;;;;;;;-0.84;70.73;100253.34;1792691;78;20986;-88
2022/12/13 07:00:10;;;;;;;9.45;4.67;;;;;;;-0.88;70.75;100256.12;1792674;78;20993;-87
2022/12/13 07:02:37;;;;;;;6.28;4.30;;;;;;;-0.89;70.80;100256.02;1792121;78;21808;-88
2022/12/13 07:05:05;;;;;;;7.92;3.80;;;;;;;-0.90;70.79;100251.64;1792366;79;21432;-88
2022/12/13 07:07:32;;;;;;;7.47;4.40;;;;;;;-0.89;70.84;100254.73;1787887;78;21078;-88
2022/12/13 07:09:58;;;;;;;5.90;4.05;;;;;;;-0.87;70.88;100254.02;1782136;79;21042;-87
2022/12/13 07:12:25;;;;;;;6.33;3.58;;;;;;;-0.83;70.89;100256.39;1787521;80;21727;-87
2022/12/13 07:14:53;;;;;;;5.83;3.62;;;;;;;-0.80;70.87;100256.19;1780283;80;21766;-87
2022/12/13 07:17:20;;;;;;;8.10;3.98;;;;;;;-0.77;70.84;100261.94;1787462;80;21328;-87
2022/12/13 07:19:47;;;;;;;7.47;4.53;;;;;;;-0.72;70.84;100257.07;1785940;80;21022;-88
2022/12/13 07:22:14;;;;;;;6.08;3.50;;;;;;;-0.65;70.94;100262.71;1788570;80;20991;-88
2022/12/13 07:24:40;;;;;;;6.67;3.80;;;;;;;-0.60;70.84;100266.89;1776340;80;21011;-88
2022/12/13 07:27:07;;;;;;;7.42;3.85;;;;;;;-0.55;70.80;100270.63;1778285;80;21723;-88
2022/12/13 07:29:34;;;;;;;11.08;4.15;;;;;;;-0.52;70.79;100265.66;1767193;80;21071;-87
2022/12/13 07:32:01;;;;;;;9.30;4.05;;;;;;;-0.44;70.79;100276.46;1769099;80;21109;-88
2022/12/13 07:34:29;;;;;;;8.25;4.10;;;;;;;-0.37;70.75;100270.87;1779311;79;20976;-88
2022/12/13 07:36:55;;;;;;;5.92;3.70;;;;;;;-0.30;70.69;100274.70;1773420;80;21796;-88
2022/12/13 07:39:27;;;;;;;6.65;4.17;;;;;;;-0.26;70.63;100276.30;1776406;78;21749;-88
2022/12/13 07:41:55;;;;;;;7.42;4.58;;;;;;;-0.21;70.56;100284.31;1787980;80;20963;-87
2022/12/13 07:44:22;;;;;;;6.62;3.90;;;;;;;-0.17;70.44;100282.41;1776392;80;21046;-87
2022/12/13 07:46:48;;;;;;;6.05;3.72;;;;;;;-0.15;70.39;100286.38;1746444;80;20930;-88
2022/12/13 07:49:15;;;;;;;7.22;4.03;;;;;;;-0.11;70.42;100286.67;1788405;79;21555;-88
2022/12/13 07:51:42;;;;;;;8.23;4.78;;;;;;;-0.06;70.33;100292.11;1758040;80;22368;-87
2022/12/13 07:54:09;;;;;;;9.05;5.08;;;;;;;-0.05;70.22;100289.62;1760080;80;21021;-88
2022/12/13 07:56:36;;;;;;;7.15;4.50;;;;;;;-0.02;70.15;100296.28;1785216;80;21089;-88
2022/12/13 07:59:02;;;;;;;6.65;3.80;;;;;;;0.01;70.13;100294.67;1785528;80;20973;-88
2022/12/13 08:01:33;;;;;;;6.83;3.75;;;;;;;0.03;70.11;100301.72;1778933;80;21051;-88
2022/12/13 08:04:01;;;;;;;8.10;4.65;;;;;;;0.06;69.98;100302.32;1780483;80;22320;-88
2022/12/13 08:06:28;;;;;;;7.90;4.17;;;;;;;0.05;69.87;100302.70;1783716;80;21029;-88
2022/12/13 08:08:56;;;;;;;7.28;4.20;;;;;;;0.06;69.86;100307.50;1794343;78;21005;-88
2022/12/13 08:11:24;;;;;;;8.20;4.30;;;;;;;0.11;69.84;100309.94;1795669;78;21460;-90
2022/12/13 08:13:52;;;;;;;7.80;4.33;;;;;;;0.13;69.75;100319.59;1790144;79;21008;-88
2022/12/13 08:16:19;;;;;;;10.05;4.25;;;;;;;0.16;69.69;100313.28;1789594;79;22438;-88
2022/12/13 08:18:48;;;;;;;6.62;4.03;;;;;;;0.17;69.67;100308.62;1789974;79;21033;-88
2022/12/13 08:21:15;;;;;;;7.67;4.50;;;;;;;0.20;69.60;100318.25;1794583;78;21055;-88
2022/12/13 08:23:42;;;;;;;6.22;3.55;;;;;;;0.23;69.57;100324.03;1796203;78;21043;-88
2022/12/13 08:26:08;;;;;;;7.22;3.85;;;;;;;0.24;69.49;100327.97;1794315;78;21504;-88
2022/12/13 08:28:36;;;;;;;8.95;3.62;;;;;;;0.26;69.45;100331.95;1791284;78;21769;-88
2022/12/13 08:31:05;;;;;;;5.62;3.52;;;;;;;0.26;69.32;100335.84;1748688;80;21422;-88
2022/12/13 08:33:34;;;;;;;6.75;3.83;;;;;;;0.27;69.29;100339.81;1728812;81;21020;-88
2022/12/13 08:36:09;;;;;;;5.67;3.95;;;;;;;0.30;69.33;100337.80;1739414;81;20978;-90
2022/12/13 08:38:36;;;;;;;7.05;4.55;;;;;;;0.35;69.31;100337.67;1722130;82;21090;-90
2022/12/13 08:41:05;;;;;;;10.43;4.22;;;;;;;0.40;69.23;100343.14;1735236;81;21777;-88
2022/12/13 08:43:32;;;;;;;7.20;4.28;;;;;;;0.45;69.21;100346.88;1743574;81;21436;-88
2022/12/13 08:48:59;;;;;;;10.43;5.08;;;;;;;0.58;69.16;100342.52;1613900;87;21025;-90
2022/12/13 08:51:22;;;;;;;11.35;5.83;;;;;;;0.65;69.07;100341.57;1685029;81;21431;-88
2022/12/13 08:53:51;;;;;;;12.43;7.17;;;;;;;0.70;68.94;100342.33;1740178;81;22277;-90
2022/12/13 08:56:24;;;;;;;13.20;7.00;;;;;;;0.75;68.65;100351.27;1732826;81;21145;-87
2022/12/13 08:59:07;;;;;;;21.33;7.85;;;;;;;0.78;68.62;100349.24;1739421;81;21388;-90
2022/12/13 09:01:33;;;;;;;11.08;5.72;;;;;;;0.82;68.60;100360.27;1744973;81;21249;-87
2022/12/13 09:04:00;;;;;;;36.50;24.57;;;;;;;0.83;68.37;100365.07;1734293;81;21035;-88
2022/12/13 09:06:27;;;;;;;24.40;14.45;;;;;;;0.82;68.23;100365.45;1759817;81;22494;-88
2022/12/13 09:08:54;;;;;;;19.07;12.70;;;;;;;0.84;68.24;100372.91;1761098;80;21007;-88
2022/12/13 09:11:21;;;;;;;11.22;6.33;;;;;;;0.88;68.23;100375.28;1760482;81;20991;-88
2022/12/13 09:13:48;;;;;;;12.58;7.03;;;;;;;0.94;68.14;100377.83;1757812;81;21028;-88
2022/12/13 09:16:18;;;;;;;16.80;9.50;;;;;;;0.97;68.03;100374.09;1761946;80;21909;-88
2022/12/13 09:18:46;;;;;;;7.60;5.65;;;;;;;0.99;67.95;100379.37;1758009;80;21744;-88
2022/12/13 09:21:14;;;;;;;8.38;5.15;;;;;;;1.04;68.02;100374.06;1758994;80;21674;-88
2022/12/13 09:23:44;;;;;;;10.53;6.80;;;;;;;1.06;67.83;100378.92;1737522;80;21006;-88
2022/12/13 09:26:13;;;;;;;9.15;5.90;;;;;;;1.08;67.80;100379.02;1757223;81;21055;-88
2022/12/13 09:28:40;;;;;;;9.65;4.90;;;;;;;1.12;67.77;100388.34;1764597;80;21458;-88
2022/12/13 09:31:12;;;;;;;8.85;4.40;;;;;;;1.16;67.42;100388.11;1764139;79;21894;-88
2022/12/13 09:33:39;;;;;;;5.58;3.85;;;;;;;1.16;67.40;100382.92;1738466;80;21008;-87
2022/12/13 09:36:07;;;;;;;7.97;5.40;;;;;;;1.20;67.37;100386.17;1761493;80;20983;-89
2022/12/13 09:38:34;;;;;;;10.72;6.78;;;;;;;1.24;67.37;100382.06;1761232;80;21793;-90
2022/12/13 09:41:12;;;;;;;13.38;8.43;;;;;;;1.25;67.27;100384.74;1762188;80;21011;-90
2022/12/13 09:43:39;;;;;;;9.70;6.10;;;;;;;1.26;67.22;100374.88;1761696;81;21744;-90
2022/12/13 09:46:09;;;;;;;11.43;7.53;;;;;;;1.28;67.18;100382.34;1760387;80;20980;-90
2022/12/13 09:48:36;;;;;;;13.40;7.97;;;;;;;1.28;67.14;100382.34;1758057;81;21141;-87
2022/12/13 09:51:03;;;;;;;9.95;5.40;;;;;;;1.34;67.17;100392.16;1763314;80;21411;-87
2022/12/13 09:53:30;;;;;;;28.62;15.45;;;;;;;1.35;67.04;100384.85;1766124;80;21496;-87
2022/12/13 09:55:57;;;;;;;11.25;8.33;;;;;;;1.35;67.07;100388.36;1763270;80;21754;-87
2022/12/13 09:58:27;;;;;;;7.20;4.22;;;;;;;1.39;67.07;100393.31;1758936;80;21052;-87
2022/12/13 10:00:55;;;;;;;10.03;6.12;;;;;;;1.36;66.99;100386.66;1758642;80;20987;-87
2022/12/13 10:03:23;;;;;;;9.18;4.83;;;;;;;1.35;67.10;100389.66;1762178;80;21005;-87
2022/12/13 10:06:01;;;;;;;7.40;4.60;;;;;;;1.36;66.99;100386.66;1760477;80;21085;-87
2022/12/13 10:08:48;;;;;;;7.35;4.55;;;;;;;1.33;66.87;100395.16;1743730;80;22486;-87
2022/12/13 10:11:16;;;;;;;9.13;4.67;;;;;;;1.30;66.76;100395.39;1763277;80;21505;-87
2022/12/13 10:14:05;;;;;;;22.35;11.03;;;;;;;1.28;66.97;100395.71;1753307;81;21052;-87
2022/12/13 10:16:43;;;;;;;9.90;4.92;;;;;;;1.33;67.03;100391.27;1731925;81;21396;-87
2022/12/13 10:19:30;;;;;;;110.45;46.80;;;;;;;1.39;66.99;100393.70;1734441;81;21043;-87
2022/12/13 10:21:57;;;;;;;15.20;10.30;;;;;;;1.40;66.82;100395.09;1754411;81;22517;-90
2022/12/13 10:24:44;;;;;;;15.25;8.53;;;;;;;1.40;66.88;100388.60;1737815;81;21033;-90
2022/12/13 10:27:13;;;;;;;9.85;5.92;;;;;;;1.44;66.86;100392.27;1731010;81;21543;-90
2022/12/13 10:30:10;;;;;;;10.35;5.40;;;;;;;1.49;66.85;100394.72;1745598;81;21038;-89
2022/12/13 10:32:58;;;;;;;10.10;5.25;;;;;;;1.54;66.75;100394.58;1739124;81;20988;-90
2022/12/13 10:35:36;;;;;;;7.50;4.97;;;;;;;1.57;66.70;100393.42;1739867;81;21738;-90
2022/12/13 10:38:15;;;;;;;11.25;6.47;;;;;;;1.57;66.48;100391.25;1760722;80;21782;-90
2022/12/13 10:40:47;;;;;;;11.03;5.53;;;;;;;1.59;66.65;100400.88;1746903;80;21634;-90
2022/12/13 10:43:19;;;;;;;18.05;9.63;;;;;;;1.62;66.62;100399.77;1742204;81;21647;-87
2022/12/13 10:45:59;;;;;;;19.57;11.35;;;;;;;1.66;66.48;100400.42;1756451;80;21548;-87
2022/12/13 10:48:39;;;;;;;6.72;4.95;;;;;;;1.65;66.39;100398.66;1765772;80;23021;-87
2022/12/13 10:51:10;;;;;;;7.08;4.90;;;;;;;1.66;66.37;100397.83;1755384;80;21569;-87
2022/12/13 10:53:50;;;;;;;11.83;6.53;;;;;;;1.68;66.28;100402.69;1735732;81;21396;-87
2022/12/13 10:56:17;;;;;;;8.60;4.97;;;;;;;1.68;66.31;100396.20;1733794;81;20995;-87
2022/12/13 10:58:45;;;;;;;7.95;4.60;;;;;;;1.68;66.25;100398.80;1750325;81;20983;-90
2022/12/13 11:01:22;;;;;;;7.92;4.65;;;;;;;1.73;66.23;100404.26;1735448;81;21736;-90
2022/12/13 11:04:00;;;;;;;21.93;9.20;;;;;;;1.73;66.11;100395.18;1747255;81;21046;-90
2022/12/13 11:06:28;;;;;;;9.75;5.42;;;;;;;1.71;66.05;100399.39;1746449;81;21000;-87
2022/12/13 11:08:55;;;;;;;6.53;5.00;;;;;;;1.72;66.09;100400.75;1714181;82;21054;-87
2022/12/13 11:11:28;;;;;;;12.98;4.50;;;;;;;1.69;65.99;100398.00;1747303;81;20963;-87
2022/12/13 11:14:00;;;;;;;10.82;4.58;;;;;;;1.66;65.95;100398.23;1727274;81;21798;-88
2022/12/13 11:16:32;;;;;;;7.83;3.98;;;;;;;1.63;65.92;100398.94;1744450;81;21109;-87
2022/12/13 11:19:04;;;;;;;11.08;5.10;;;;;;;1.61;65.95;100401.86;1737907;82;29178;-87
2022/12/13 11:21:35;;;;;;;8.13;4.73;;;;;;;1.62;66.10;100401.48;1738680;81;21322;-87
2022/12/13 11:24:06;;;;;;;7.17;4.40;;;;;;;1.66;66.13;100399.54;1743449;81;21411;-87
2022/12/13 11:26:37;;;;;;;5.83;4.00;;;;;;;1.69;66.08;100406.17;1739838;81;21754;-88
2022/12/13 11:29:42;;;;;;;8.25;4.53;;;;;;;1.69;66.08;100409.68;1739797;81;21026;-88
2022/12/13 11:32:38;;;;;;;10.82;6.53;;;;;;;1.70;66.08;100406.27;1738442;81;21059;-87
2022/12/13 11:35:42;;;;;;;10.80;6.17;;;;;;;1.70;66.11;100414.45;1736461;81;21022;-90
2022/12/13 11:38:38;;;;;;;12.10;5.67;;;;;;;1.69;66.10;100407.09;1746764;81;21037;-90
2022/12/13 11:41:18;;;;;;;9.35;5.37;;;;;;;1.70;66.05;100410.16;1743560;81;21985;-90
2022/12/13 11:43:56;;;;;;;11.43;5.28;;;;;;;1.69;65.90;100410.06;1737518;81;21075;-87
2022/12/13 11:46:43;;;;;;;8.28;4.90;;;;;;;1.62;65.85;100412.74;1741771;81;21713;-87
2022/12/13 11:49:16;;;;;;;17.62;10.58;;;;;;;1.61;65.93;100412.23;1742852;81;22050;-90
2022/12/13 11:51:57;;;;;;;;;;;;;;;1.63;65.99;100414.51;1740570;81;21090;-90
2022/12/13 11:54:34;;;;;;;9.03;5.90;;;;;;;1.62;65.94;100413.16;1732196;81;21781;-87